sensor_id;sensor_type;location;lat;lon;timestamp;pressure;altitude;pressure_sealevel;temperature;humidity
73453;BME280;61687;56.232;43.854;2022-12-10T00:00:55;101086.19;;;-2.23;79.96
73453;BME280;61687;56.232;43.854;2022-12-10T00:03:21;101089.69;;;-2.22;80.17
73453;BME280;61687;56.232;43.854;2022-12-10T00:05:47;101081.06;;;-2.24;80.06
73453;BME280;61687;56.232;43.854;2022-12-10T00:08:13;101078.38;;;-2.24;80.22
73453;BME280;61687;56.232;43.854;2022-12-10T00:10:40;101074.91;;;-2.25;80.26
73453;BME280;61687;56.232;43.854;2022-12-10T00:13:05;101078.41;;;-2.19;80.21
73453;BME280;61687;56.232;43.854;2022-12-10T00:15:34;101072.50;;;-2.21;80.01
73453;BME280;61687;56.232;43.854;2022-12-10T00:18:01;101078.13;;;-2.23;80.17
73453;BME280;61687;56.232;43.854;2022-12-10T00:20:26;101070.31;;;-2.24;80.22
73453;BME280;61687;56.232;43.854;2022-12-10T00:22:52;101067.38;;;-2.23;80.54
73453;BME280;61687;56.232;43.854;2022-12-10T00:25:18;101070.59;;;-2.21;80.52
73453;BME280;61687;56.232;43.854;2022-12-10T00:27:44;101074.13;;;-2.15;80.28
73453;BME280;61687;56.232;43.854;2022-12-10T00:30:11;101068.75;;;-2.15;80.19
73453;BME280;61687;56.232;43.854;2022-12-10T00:32:37;101066.63;;;-2.13;80.11
73453;BME280;61687;56.232;43.854;2022-12-10T00:35:03;101067.69;;;-2.14;80.32
73453;BME280;61687;56.232;43.854;2022-12-10T00:37:29;101060.44;;;-2.13;80.14
73453;BME280;61687;56.232;43.854;2022-12-10T00:39:55;101061.50;;;-2.14;80.22
73453;BME280;61687;56.232;43.854;2022-12-10T00:42:21;101066.88;;;-2.14;80.38
73453;BME280;61687;56.232;43.854;2022-12-10T00:44:46;101055.88;;;-2.13;80.44
73453;BME280;61687;56.232;43.854;2022-12-10T00:47:12;101061.00;;;-2.06;80.19
73453;BME280;61687;56.232;43.854;2022-12-10T00:49:38;101059.66;;;-2.09;80.12
73453;BME280;61687;56.232;43.854;2022-12-10T00:52:04;101053.47;;;-2.09;80.33
73453;BME280;61687;56.232;43.854;2022-12-10T00:54:30;101052.66;;;-2.10;80.40
73453;BME280;61687;56.232;43.854;2022-12-10T00:56:56;101059.66;;;-2.04;80.29
73453;BME280;61687;56.232;43.854;2022-12-10T00:59:22;101047.84;;;-2.03;79.94
73453;BME280;61687;56.232;43.854;2022-12-10T01:01:48;101042.22;;;-2.01;80.05
73453;BME280;61687;56.232;43.854;2022-12-10T01:04:16;101051.34;;;-1.97;79.80
73453;BME280;61687;56.232;43.854;2022-12-10T01:06:48;101054.34;;;-1.93;79.83
73453;BME280;61687;56.232;43.854;2022-12-10T01:09:17;101046.28;;;-1.93;79.54
73453;BME280;61687;56.232;43.854;2022-12-10T01:11:45;101047.34;;;-1.94;79.60
73453;BME280;61687;56.232;43.854;2022-12-10T01:14:18;101044.66;;;-1.94;79.49
73453;BME280;61687;56.232;43.854;2022-12-10T01:16:47;101049.22;;;-1.95;79.54
73453;BME280;61687;56.232;43.854;2022-12-10T01:19:13;101046.56;;;-1.90;79.54
73453;BME280;61687;56.232;43.854;2022-12-10T01:21:39;101046.28;;;-1.93;79.32
73453;BME280;61687;56.232;43.854;2022-12-10T01:24:06;101040.31;;;-2.06;79.74
73453;BME280;61687;56.232;43.854;2022-12-10T01:26:34;101039.78;;;-2.03;79.90
73453;BME280;61687;56.232;43.854;2022-12-10T01:29:02;101037.91;;;-2.02;79.81
73453;BME280;61687;56.232;43.854;2022-12-10T01:31:33;101029.06;;;-1.97;79.67
73453;BME280;61687;56.232;43.854;2022-12-10T01:34:00;101037.38;;;-1.94;79.69
73453;BME280;61687;56.232;43.854;2022-12-10T01:36:30;101033.38;;;-1.91;79.52
73453;BME280;61687;56.232;43.854;2022-12-10T01:38:56;101029.63;;;-1.90;79.42
73453;BME280;61687;56.232;43.854;2022-12-10T01:41:29;101029.38;;;-1.89;79.17
73453;BME280;61687;56.232;43.854;2022-12-10T01:43:58;101033.13;;;-1.90;79.23
73453;BME280;61687;56.232;43.854;2022-12-10T01:46:30;101041.97;;;-1.89;79.13
73453;BME280;61687;56.232;43.854;2022-12-10T01:48:59;101029.63;;;-1.90;79.19
73453;BME280;61687;56.232;43.854;2022-12-10T01:51:28;101022.34;;;-1.95;79.20
73453;BME280;61687;56.232;43.854;2022-12-10T01:53:55;101021.81;;;-1.97;79.13
73453;BME280;61687;56.232;43.854;2022-12-10T01:56:22;101023.97;;;-1.94;78.85
73453;BME280;61687;56.232;43.854;2022-12-10T01:58:50;101028.00;;;-1.91;78.81
73453;BME280;61687;56.232;43.854;2022-12-10T02:06:45;101033.91;;;-1.89;78.52
73453;BME280;61687;56.232;43.854;2022-12-10T02:09:25;101030.16;;;-1.88;78.49
73453;BME280;61687;56.232;43.854;2022-12-10T02:12:06;101022.09;;;-1.88;78.44
73453;BME280;61687;56.232;43.854;2022-12-10T02:17:19;101029.09;;;-1.87;78.22
73453;BME280;61687;56.232;43.854;2022-12-10T02:22:17;101029.38;;;-1.89;77.82
73453;BME280;61687;56.232;43.854;2022-12-10T02:24:44;101026.66;;;-1.94;78.25
73453;BME280;61687;56.232;43.854;2022-12-10T02:29:54;101035.81;;;-1.90;78.25
73453;BME280;61687;56.232;43.854;2022-12-10T02:32:29;101029.63;;;-1.90;77.86
73453;BME280;61687;56.232;43.854;2022-12-10T02:35:04;101038.75;;;-1.91;77.71
73453;BME280;61687;56.232;43.854;2022-12-10T02:37:39;101039.56;;;-1.91;77.58
73453;BME280;61687;56.232;43.854;2022-12-10T02:40:11;101036.59;;;-1.94;77.25
73453;BME280;61687;56.232;43.854;2022-12-10T02:42:47;101039.81;;;-1.92;77.06
73453;BME280;61687;56.232;43.854;2022-12-10T02:45:16;101041.44;;;-1.96;77.45
73453;BME280;61687;56.232;43.854;2022-12-10T02:47:42;101026.41;;;-1.92;77.44
73453;BME280;61687;56.232;43.854;2022-12-10T02:50:11;101035.53;;;-1.88;77.02
73453;BME280;61687;56.232;43.854;2022-12-10T02:52:39;101030.97;;;-1.88;77.00
73453;BME280;61687;56.232;43.854;2022-12-10T02:55:06;101022.09;;;-1.88;77.24
73453;BME280;61687;56.232;43.854;2022-12-10T02:57:55;101022.09;;;-1.88;77.18
73453;BME280;61687;56.232;43.854;2022-12-10T03:00:27;101023.72;;;-1.87;76.98
73453;BME280;61687;56.232;43.854;2022-12-10T03:05:51;101027.47;;;-1.83;76.58
73453;BME280;61687;56.232;43.854;2022-12-10T03:08:26;101028.00;;;-1.91;76.78
73453;BME280;61687;56.232;43.854;2022-12-10T03:13:32;101014.03;;;-1.93;77.13
73453;BME280;61687;56.232;43.854;2022-12-10T03:16:04;101008.66;;;-1.88;76.84
73453;BME280;61687;56.232;43.854;2022-12-10T03:18:31;101023.19;;;-1.84;76.90
73453;BME280;61687;56.232;43.854;2022-12-10T03:21:03;101013.53;;;-1.80;76.35
73453;BME280;61687;56.232;43.854;2022-12-10T03:23:31;101014.03;;;-1.83;76.37
73453;BME280;61687;56.232;43.854;2022-12-10T03:26:00;101014.03;;;-1.88;76.41
73453;BME280;61687;56.232;43.854;2022-12-10T03:28:27;101014.03;;;-1.88;76.56
73453;BME280;61687;56.232;43.854;2022-12-10T03:30:56;101008.94;;;-1.90;76.69
73453;BME280;61687;56.232;43.854;2022-12-10T03:33:22;101019.69;;;-1.90;76.63
73453;BME280;61687;56.232;43.854;2022-12-10T03:35:49;101011.06;;;-1.97;76.61
73453;BME280;61687;56.232;43.854;2022-12-10T03:38:15;101016.44;;;-1.97;76.94
73453;BME280;61687;56.232;43.854;2022-12-10T03:40:42;101016.97;;;-1.95;76.53
73453;BME280;61687;56.232;43.854;2022-12-10T03:43:08;101016.19;;;-1.95;76.61
73453;BME280;61687;56.232;43.854;2022-12-10T03:45:34;101018.59;;;-1.99;76.52
73453;BME280;61687;56.232;43.854;2022-12-10T03:47:59;101015.38;;;-1.96;76.51
73453;BME280;61687;56.232;43.854;2022-12-10T03:50:25;101028.53;;;-1.94;76.52
73453;BME280;61687;56.232;43.854;2022-12-10T03:52:51;101030.16;;;-1.93;76.41
73453;BME280;61687;56.232;43.854;2022-12-10T03:55:17;101028.00;;;-1.91;76.54
73453;BME280;61687;56.232;43.854;2022-12-10T03:57:43;101028.00;;;-1.86;76.47
73453;BME280;61687;56.232;43.854;2022-12-10T04:00:10;101029.09;;;-1.82;76.50
73453;BME280;61687;56.232;43.854;2022-12-10T04:02:40;101035.28;;;-1.81;76.38
73453;BME280;61687;56.232;43.854;2022-12-10T04:05:06;101028.31;;;-1.77;76.10
73453;BME280;61687;56.232;43.854;2022-12-10T04:07:33;101037.72;;;-1.80;75.55
73453;BME280;61687;56.232;43.854;2022-12-10T04:10:00;101026.16;;;-1.85;75.79
73453;BME280;61687;56.232;43.854;2022-12-10T04:12:25;101043.59;;;-1.83;75.77
73453;BME280;61687;56.232;43.854;2022-12-10T04:14:51;101040.66;;;-1.87;75.62
73453;BME280;61687;56.232;43.854;2022-12-10T04:17:36;101035.53;;;-1.88;75.81
73453;BME280;61687;56.232;43.854;2022-12-10T04:20:02;101039.28;;;-1.89;75.87
73453;BME280;61687;56.232;43.854;2022-12-10T04:22:29;101030.44;;;-1.90;75.36
73453;BME280;61687;56.232;43.854;2022-12-10T04:25:13;101035.53;;;-1.93;75.03
73453;BME280;61687;56.232;43.854;2022-12-10T04:27:57;101046.22;;;-2.04;75.44
73453;BME280;61687;56.232;43.854;2022-12-10T04:30:23;101035.22;;;-2.07;75.03
73453;BME280;61687;56.232;43.854;2022-12-10T04:32:49;101050.50;;;-2.13;75.68
73453;BME280;61687;56.232;43.854;2022-12-10T04:35:15;101047.28;;;-2.15;75.88
73453;BME280;61687;56.232;43.854;2022-12-10T04:37:41;101047.81;;;-2.13;75.84
73453;BME280;61687;56.232;43.854;2022-12-10T04:40:08;101048.91;;;-2.09;75.83
73453;BME280;61687;56.232;43.854;2022-12-10T04:42:34;101034.69;;;-2.04;75.96
73453;BME280;61687;56.232;43.854;2022-12-10T04:45:00;101039.78;;;-2.03;75.40
73453;BME280;61687;56.232;43.854;2022-12-10T04:47:25;101039.00;;;-2.03;75.40
73453;BME280;61687;56.232;43.854;2022-12-10T04:49:51;101037.38;;;-1.99;74.79
73453;BME280;61687;56.232;43.854;2022-12-10T04:52:18;101048.34;;;-2.11;75.20
73453;BME280;61687;56.232;43.854;2022-12-10T04:54:44;101043.00;;;-2.11;75.49
73453;BME280;61687;56.232;43.854;2022-12-10T04:57:10;101033.88;;;-2.10;75.63
73453;BME280;61687;56.232;43.854;2022-12-10T04:59:36;101035.22;;;-2.02;75.54
73453;BME280;61687;56.232;43.854;2022-12-10T05:02:03;101045.19;;;-1.97;75.48
73453;BME280;61687;56.232;43.854;2022-12-10T05:04:29;101031.75;;;-1.92;75.29
73453;BME280;61687;56.232;43.854;2022-12-10T05:06:55;101014.56;;;-1.91;74.82
73453;BME280;61687;56.232;43.854;2022-12-10T05:09:21;101036.59;;;-1.94;74.88
73453;BME280;61687;56.232;43.854;2022-12-10T05:11:48;101037.94;;;-1.97;75.10
73453;BME280;61687;56.232;43.854;2022-12-10T05:14:15;101048.94;;;-1.98;74.88
73453;BME280;61687;56.232;43.854;2022-12-10T05:16:41;101046.81;;;-1.96;74.86
73453;BME280;61687;56.232;43.854;2022-12-10T05:19:08;101054.88;;;-1.96;74.96
73453;BME280;61687;56.232;43.854;2022-12-10T05:21:34;101055.13;;;-1.98;74.98
73453;BME280;61687;56.232;43.854;2022-12-10T05:24:19;101051.63;;;-1.98;74.97
73453;BME280;61687;56.232;43.854;2022-12-10T05:26:45;101044.38;;;-1.98;74.91
73453;BME280;61687;56.232;43.854;2022-12-10T05:29:12;101034.44;;;-1.97;74.79
73453;BME280;61687;56.232;43.854;2022-12-10T05:31:38;101023.16;;;-1.94;74.85
73453;BME280;61687;56.232;43.854;2022-12-10T05:34:04;101020.47;;;-1.94;74.50
73453;BME280;61687;56.232;43.854;2022-12-10T05:36:31;101011.06;;;-1.97;74.55
73453;BME280;61687;56.232;43.854;2022-12-10T05:38:58;101007.06;;;-1.99;74.57
73453;BME280;61687;56.232;43.854;2022-12-10T05:41:30;101014.56;;;-1.96;74.71
73453;BME280;61687;56.232;43.854;2022-12-10T05:43:57;101008.66;;;-1.93;74.80
73453;BME280;61687;56.232;43.854;2022-12-10T05:46:26;101012.72;;;-1.91;74.80
73453;BME280;61687;56.232;43.854;2022-12-10T05:48:52;101008.94;;;-1.90;74.67
73453;BME280;61687;56.232;43.854;2022-12-10T05:51:21;101010.28;;;-1.87;74.60
73453;BME280;61687;56.232;43.854;2022-12-10T05:53:47;101023.47;;;-1.80;74.54
73453;BME280;61687;56.232;43.854;2022-12-10T05:56:16;101048.72;;;-1.81;74.08
73453;BME280;61687;56.232;43.854;2022-12-10T05:58:46;101068.84;;;-1.89;74.25
73453;BME280;61687;56.232;43.854;2022-12-10T06:01:17;101071.00;;;-1.91;74.55
73453;BME280;61687;56.232;43.854;2022-12-10T06:03:44;101062.94;;;-1.91;74.26
73453;BME280;61687;56.232;43.854;2022-12-10T06:06:11;101066.94;;;-1.94;74.16
73453;BME280;61687;56.232;43.854;2022-12-10T06:08:38;101058.59;;;-2.03;74.60
73453;BME280;61687;56.232;43.854;2022-12-10T06:11:10;101052.66;;;-2.05;74.73
73453;BME280;61687;56.232;43.854;2022-12-10T06:13:37;101046.78;;;-2.02;74.73
73453;BME280;61687;56.232;43.854;2022-12-10T06:16:08;101044.66;;;-1.94;74.80
73453;BME280;61687;56.232;43.854;2022-12-10T06:18:35;101043.88;;;-1.90;74.80
73453;BME280;61687;56.232;43.854;2022-12-10T06:21:05;101030.69;;;-1.86;74.47
73453;BME280;61687;56.232;43.854;2022-12-10T06:23:31;101037.16;;;-1.82;74.46
73453;BME280;61687;56.232;43.854;2022-12-10T06:25:57;101041.19;;;-1.79;74.24
73453;BME280;61687;56.232;43.854;2022-12-10T06:28:24;101040.94;;;-1.78;73.82
73453;BME280;61687;56.232;43.854;2022-12-10T06:30:49;101053.56;;;-1.78;74.08
73453;BME280;61687;56.232;43.854;2022-12-10T06:33:15;101046.31;;;-1.78;74.02
73453;BME280;61687;56.232;43.854;2022-12-10T06:35:41;101048.47;;;-1.75;74.11
73453;BME280;61687;56.232;43.854;2022-12-10T06:38:07;101043.09;;;-1.69;74.15
73453;BME280;61687;56.232;43.854;2022-12-10T06:40:33;101056.53;;;-1.64;74.10
73453;BME280;61687;56.232;43.854;2022-12-10T06:42:59;101051.19;;;-1.59;73.59
73453;BME280;61687;56.232;43.854;2022-12-10T06:45:24;101047.16;;;-1.62;73.83
73453;BME280;61687;56.232;43.854;2022-12-10T06:47:51;101049.84;;;-1.56;73.91
73453;BME280;61687;56.232;43.854;2022-12-10T06:50:17;101053.88;;;-1.49;73.73
73453;BME280;61687;56.232;43.854;2022-12-10T06:52:43;101046.88;;;-1.45;73.57
73453;BME280;61687;56.232;43.854;2022-12-10T06:55:09;101055.22;;;-1.41;73.21
73453;BME280;61687;56.232;43.854;2022-12-10T06:57:35;101064.63;;;-1.44;73.31
73453;BME280;61687;56.232;43.854;2022-12-10T07:00:01;101061.16;;;-1.44;73.38
73453;BME280;61687;56.232;43.854;2022-12-10T07:02:29;101065.44;;;-1.43;73.32
73453;BME280;61687;56.232;43.854;2022-12-10T07:04:55;101056.56;;;-1.44;73.39
73453;BME280;61687;56.232;43.854;2022-12-10T07:07:22;101067.84;;;-1.41;73.22
73453;BME280;61687;56.232;43.854;2022-12-10T07:09:48;101069.22;;;-1.44;73.33
73453;BME280;61687;56.232;43.854;2022-12-10T07:12:13;101058.72;;;-1.40;73.39
73453;BME280;61687;56.232;43.854;2022-12-10T07:14:40;101072.69;;;-1.38;73.12
73453;BME280;61687;56.232;43.854;2022-12-10T07:17:06;101071.63;;;-1.42;72.94
73453;BME280;61687;56.232;43.854;2022-12-10T07:19:32;101051.19;;;-1.49;73.22
73453;BME280;61687;56.232;43.854;2022-12-10T07:21:57;101049.84;;;-1.51;73.31
73453;BME280;61687;56.232;43.854;2022-12-10T07:24:23;101050.91;;;-1.52;73.29
73453;BME280;61687;56.232;43.854;2022-12-10T07:26:50;101045.53;;;-1.52;73.38
73453;BME280;61687;56.232;43.854;2022-12-10T07:29:20;101057.66;;;-1.50;73.36
73453;BME280;61687;56.232;43.854;2022-12-10T07:31:47;101057.66;;;-1.50;73.53
73453;BME280;61687;56.232;43.854;2022-12-10T07:34:14;101058.72;;;-1.46;73.61
73453;BME280;61687;56.232;43.854;2022-12-10T07:36:41;101060.88;;;-1.42;73.27
73453;BME280;61687;56.232;43.854;2022-12-10T07:39:08;101055.50;;;-1.42;73.53
73453;BME280;61687;56.232;43.854;2022-12-10T07:41:35;101055.50;;;-1.42;73.54
73453;BME280;61687;56.232;43.854;2022-12-10T07:44:03;101052.81;;;-1.37;73.50
73453;BME280;61687;56.232;43.854;2022-12-10T07:46:33;101052.00;;;-1.38;73.39
73453;BME280;61687;56.232;43.854;2022-12-10T07:49:01;101054.44;;;-1.36;73.26
73453;BME280;61687;56.232;43.854;2022-12-10T07:51:27;101057.38;;;-1.33;73.10
73453;BME280;61687;56.232;43.854;2022-12-10T07:53:53;101050.94;;;-1.32;73.09
73453;BME280;61687;56.232;43.854;2022-12-10T07:56:20;101060.59;;;-1.31;73.11
73453;BME280;61687;56.232;43.854;2022-12-10T07:58:47;101054.44;;;-1.31;72.97
73453;BME280;61687;56.232;43.854;2022-12-10T08:01:16;101049.59;;;-1.34;73.06
73453;BME280;61687;56.232;43.854;2022-12-10T08:03:43;101048.78;;;-1.35;72.82
73453;BME280;61687;56.232;43.854;2022-12-10T08:06:11;101044.19;;;-1.39;72.87
73453;BME280;61687;56.232;43.854;2022-12-10T08:08:39;101034.53;;;-1.46;73.21
73453;BME280;61687;56.232;43.854;2022-12-10T08:11:05;101041.78;;;-1.46;73.17
73453;BME280;61687;56.232;43.854;2022-12-10T08:13:32;101041.25;;;-1.48;73.37
73453;BME280;61687;56.232;43.854;2022-12-10T08:18:32;101044.72;;;-1.42;73.58
73453;BME280;61687;56.232;43.854;2022-12-10T08:21:03;101044.19;;;-1.39;73.49
73453;BME280;61687;56.232;43.854;2022-12-10T08:23:30;101029.16;;;-1.35;73.35
73453;BME280;61687;56.232;43.854;2022-12-10T08:25:56;101034.00;;;-1.32;73.47
73453;BME280;61687;56.232;43.854;2022-12-10T08:28:21;101042.59;;;-1.30;73.25
73453;BME280;61687;56.232;43.854;2022-12-10T08:30:48;101043.66;;;-1.26;73.18
73453;BME280;61687;56.232;43.854;2022-12-10T08:33:14;101045.28;;;-1.25;73.15
73453;BME280;61687;56.232;43.854;2022-12-10T08:35:40;101047.19;;;-1.25;72.97
73453;BME280;61687;56.232;43.854;2022-12-10T08:38:06;101042.06;;;-1.27;73.19
73453;BME280;61687;56.232;43.854;2022-12-10T08:40:32;101036.44;;;-1.25;72.94
73453;BME280;61687;56.232;43.854;2022-12-10T08:42:58;101033.19;;;-1.22;73.32
73453;BME280;61687;56.232;43.854;2022-12-10T08:45:24;101028.09;;;-1.13;73.02
73453;BME280;61687;56.232;43.854;2022-12-10T08:47:51;101033.97;;;-1.06;72.98
73453;BME280;61687;56.232;43.854;2022-12-10T08:50:18;101035.59;;;-1.00;72.91
73453;BME280;61687;56.232;43.854;2022-12-10T08:52:44;101025.09;;;-0.96;72.36
73453;BME280;61687;56.232;43.854;2022-12-10T08:55:10;101024.56;;;-0.98;72.76
73453;BME280;61687;56.232;43.854;2022-12-10T08:57:35;101019.44;;;-0.95;72.70
73453;BME280;61687;56.232;43.854;2022-12-10T09:00:03;101009.75;;;-0.96;72.83
73453;BME280;61687;56.232;43.854;2022-12-10T09:02:30;101011.63;;;-0.91;72.85
73453;BME280;61687;56.232;43.854;2022-12-10T09:04:56;101011.91;;;-0.88;72.61
73453;BME280;61687;56.232;43.854;2022-12-10T09:07:22;101016.72;;;-0.79;72.60
73453;BME280;61687;56.232;43.854;2022-12-10T09:09:49;101020.78;;;-0.82;72.14
73453;BME280;61687;56.232;43.854;2022-12-10T09:12:14;101023.19;;;-0.80;72.24
73453;BME280;61687;56.232;43.854;2022-12-10T09:14:40;101031.81;;;-0.89;72.45
73453;BME280;61687;56.232;43.854;2022-12-10T09:17:07;101032.09;;;-0.95;72.47
73453;BME280;61687;56.232;43.854;2022-12-10T09:19:34;101025.38;;;-1.03;72.77
73453;BME280;61687;56.232;43.854;2022-12-10T09:22:00;101031.56;;;-1.03;72.95
73453;BME280;61687;56.232;43.854;2022-12-10T09:24:25;101027.25;;;-0.98;73.03
73453;BME280;61687;56.232;43.854;2022-12-10T09:26:51;101024.84;;;-0.95;73.09
73453;BME280;61687;56.232;43.854;2022-12-10T09:29:17;101027.50;;;-0.90;73.07
73453;BME280;61687;56.232;43.854;2022-12-10T09:31:43;101030.44;;;-0.86;72.72
73453;BME280;61687;56.232;43.854;2022-12-10T09:34:09;101031.25;;;-0.85;72.74
73453;BME280;61687;56.232;43.854;2022-12-10T09:36:35;101026.94;;;-0.81;72.49
73453;BME280;61687;56.232;43.854;2022-12-10T09:39:01;101032.31;;;-0.81;72.54
73453;BME280;61687;56.232;43.854;2022-12-10T09:41:41;101018.63;;;-0.80;72.21
73453;BME280;61687;56.232;43.854;2022-12-10T09:46:57;101005.97;;;-0.84;72.20
73453;BME280;61687;56.232;43.854;2022-12-10T09:51:55;101002.75;;;-0.97;72.33
73453;BME280;61687;56.232;43.854;2022-12-10T09:54:30;101003.56;;;-0.96;72.69
73453;BME280;61687;56.232;43.854;2022-12-10T09:56:58;101001.13;;;-0.98;72.92
73453;BME280;61687;56.232;43.854;2022-12-10T09:59:29;100992.25;;;-0.93;72.98
73453;BME280;61687;56.232;43.854;2022-12-10T10:02:25;100997.38;;;-0.87;72.86
73453;BME280;61687;56.232;43.854;2022-12-10T10:05:09;101001.13;;;-0.88;72.97
73453;BME280;61687;56.232;43.854;2022-12-10T10:07:48;101004.91;;;-0.89;72.83
73453;BME280;61687;56.232;43.854;2022-12-10T10:12:55;101007.88;;;-1.01;73.40
73453;BME280;61687;56.232;43.854;2022-12-10T10:15:30;101008.94;;;-0.96;73.61
73453;BME280;61687;56.232;43.854;2022-12-10T10:17:59;100995.75;;;-0.88;73.46
73453;BME280;61687;56.232;43.854;2022-12-10T10:20:28;100994.13;;;-0.83;73.32
73453;BME280;61687;56.232;43.854;2022-12-10T10:22:56;100986.88;;;-0.83;73.20
73453;BME280;61687;56.232;43.854;2022-12-10T10:25:24;100989.56;;;-0.83;73.21
73453;BME280;61687;56.232;43.854;2022-12-10T10:27:50;100993.88;;;-0.92;73.35
73453;BME280;61687;56.232;43.854;2022-12-10T10:30:18;101003.28;;;-1.00;73.63
73453;BME280;61687;56.232;43.854;2022-12-10T10:35:45;101001.44;;;-1.10;74.28
73453;BME280;61687;56.232;43.854;2022-12-10T10:38:21;100983.44;;;-1.14;74.15
73453;BME280;61687;56.232;43.854;2022-12-10T10:40:54;100994.19;;;-1.14;74.37
73453;BME280;61687;56.232;43.854;2022-12-10T10:43:32;100990.69;;;-1.15;74.47
73453;BME280;61687;56.232;43.854;2022-12-10T10:46:16;101001.44;;;-1.15;74.62
73453;BME280;61687;56.232;43.854;2022-12-10T10:48:43;100993.91;;;-1.18;74.64
73453;BME280;61687;56.232;43.854;2022-12-10T10:53:50;100984.47;;;-1.05;74.59
73453;BME280;61687;56.232;43.854;2022-12-10T10:56:40;100981.25;;;-1.02;74.40
73453;BME280;61687;56.232;43.854;2022-12-10T11:01:48;100971.00;;;-1.00;74.43
73453;BME280;61687;56.232;43.854;2022-12-10T11:04:16;100968.06;;;-0.98;74.39
73453;BME280;61687;56.232;43.854;2022-12-10T11:06:44;100971.03;;;-0.95;74.40
73453;BME280;61687;56.232;43.854;2022-12-10T11:09:24;100974.22;;;-0.88;74.21
73453;BME280;61687;56.232;43.854;2022-12-10T11:11:52;100976.63;;;-0.86;73.91
73453;BME280;61687;56.232;43.854;2022-12-10T11:14:26;100972.91;;;-0.95;74.19
73453;BME280;61687;56.232;43.854;2022-12-10T11:19:42;100980.72;;;-1.04;74.62
73453;BME280;61687;56.232;43.854;2022-12-10T11:22:23;100980.72;;;-1.04;74.64
73453;BME280;61687;56.232;43.854;2022-12-10T11:24:50;100993.91;;;-1.13;75.02
73453;BME280;61687;56.232;43.854;2022-12-10T11:27:29;101004.41;;;-1.22;75.25
73453;BME280;61687;56.232;43.854;2022-12-10T11:30:04;100993.13;;;-1.24;75.55
73453;BME280;61687;56.232;43.854;2022-12-10T11:32:55;100996.88;;;-1.25;75.65
73453;BME280;61687;56.232;43.854;2022-12-10T11:38:30;100983.41;;;-1.20;75.90
73453;BME280;61687;56.232;43.854;2022-12-10T11:41:02;100983.44;;;-1.14;75.87
73453;BME280;61687;56.232;43.854;2022-12-10T11:46:35;100986.13;;;-1.25;76.19
73453;BME280;61687;56.232;43.854;2022-12-10T11:49:35;100992.03;;;-1.28;76.29
73453;BME280;61687;56.232;43.854;2022-12-10T11:57:25;101003.88;;;-1.34;76.76
73453;BME280;61687;56.232;43.854;2022-12-10T12:05:27;100999.56;;;-1.30;76.74
73453;BME280;61687;56.232;43.854;2022-12-10T12:08:22;100999.84;;;-1.26;76.68
73453;BME280;61687;56.232;43.854;2022-12-10T12:13:42;100999.56;;;-1.20;76.44
73453;BME280;61687;56.232;43.854;2022-12-10T12:16:16;101002.78;;;-1.23;76.64
73453;BME280;61687;56.232;43.854;2022-12-10T12:18:59;100995.53;;;-1.22;76.61
73453;BME280;61687;56.232;43.854;2022-12-10T12:21:25;100991.25;;;-1.23;76.71
73453;BME280;61687;56.232;43.854;2022-12-10T12:24:12;100990.97;;;-1.22;76.77
73453;BME280;61687;56.232;43.854;2022-12-10T12:26:54;100993.13;;;-1.13;76.65
73453;BME280;61687;56.232;43.854;2022-12-10T12:29:28;100988.25;;;-1.06;76.44
73453;BME280;61687;56.232;43.854;2022-12-10T12:32:01;100987.72;;;-1.03;76.27
73453;BME280;61687;56.232;43.854;2022-12-10T12:34:52;100990.41;;;-1.03;76.33
73453;BME280;61687;56.232;43.854;2022-12-10T12:37:29;100997.91;;;-1.00;76.27
73453;BME280;61687;56.232;43.854;2022-12-10T12:40:03;101007.88;;;-1.01;76.34
73453;BME280;61687;56.232;43.854;2022-12-10T12:48:00;101007.06;;;-0.96;76.19
73453;BME280;61687;56.232;43.854;2022-12-10T12:51:05;101006.53;;;-0.98;76.30
73453;BME280;61687;56.232;43.854;2022-12-10T12:53:29;100997.94;;;-0.95;76.44
73453;BME280;61687;56.232;43.854;2022-12-10T12:56:00;101004.63;;;-0.92;76.53
73453;BME280;61687;56.232;43.854;2022-12-10T12:58:37;101000.84;;;-0.91;76.44
73453;BME280;61687;56.232;43.854;2022-12-10T13:03:50;101000.06;;;-0.87;76.54
73453;BME280;61687;56.232;43.854;2022-12-10T13:11:37;100995.72;;;-0.82;76.43
73453;BME280;61687;56.232;43.854;2022-12-10T13:29:56;100996.84;;;-0.89;76.93
73453;BME280;61687;56.232;43.854;2022-12-10T13:43:38;100982.00;;;-0.76;76.75
73453;BME280;61687;56.232;43.854;2022-12-10T13:49:00;100970.69;;;-0.73;76.52
73453;BME280;61687;56.232;43.854;2022-12-10T13:59:29;100974.19;;;-0.77;76.70
73453;BME280;61687;56.232;43.854;2022-12-10T14:05:14;100974.19;;;-0.82;76.96
73453;BME280;61687;56.232;43.854;2022-12-10T14:07:46;100972.06;;;-0.85;76.93
73453;BME280;61687;56.232;43.854;2022-12-10T14:10:16;100968.56;;;-0.81;76.92
73453;BME280;61687;56.232;43.854;2022-12-10T14:12:44;100963.72;;;-0.79;76.79
73453;BME280;61687;56.232;43.854;2022-12-10T14:15:22;100959.13;;;-0.78;76.90
73453;BME280;61687;56.232;43.854;2022-12-10T14:17:52;100955.88;;;-0.75;76.88
73453;BME280;61687;56.232;43.854;2022-12-10T14:20:22;100959.13;;;-0.73;76.89
73453;BME280;61687;56.232;43.854;2022-12-10T14:22:53;100944.28;;;-0.70;76.89
73453;BME280;61687;56.232;43.854;2022-12-10T14:25:45;100942.97;;;-0.73;76.76
73453;BME280;61687;56.232;43.854;2022-12-10T14:28:14;100940.00;;;-0.72;76.78
73453;BME280;61687;56.232;43.854;2022-12-10T14:30:46;100938.91;;;-0.70;76.94
73453;BME280;61687;56.232;43.854;2022-12-10T14:33:16;100938.13;;;-0.71;76.78
73453;BME280;61687;56.232;43.854;2022-12-10T14:35:47;100940.28;;;-0.73;76.97
73453;BME280;61687;56.232;43.854;2022-12-10T14:38:21;100927.34;;;-0.71;76.75
73453;BME280;61687;56.232;43.854;2022-12-10T14:40:49;100929.25;;;-0.77;76.94
73453;BME280;61687;56.232;43.854;2022-12-10T14:43:19;100932.75;;;-0.81;77.33
73453;BME280;61687;56.232;43.854;2022-12-10T14:45:59;100932.72;;;-0.76;77.23